sensor_id;sensor_type;location;lat;lon;timestamp;temperature;humidity
30174;DHT22;16985;50.814;8.530;2022-09-20T00:01:27;9.60;99.90
30174;DHT22;16985;50.814;8.530;2022-09-20T00:03:59;9.60;99.90
30174;DHT22;16985;50.814;8.530;2022-09-20T00:06:30;9.60;99.90
30174;DHT22;16985;50.814;8.530;2022-09-20T00:08:57;9.50;99.90
30174;DHT22;16985;50.814;8.530;2022-09-20T00:11:27;9.50;99.90
30174;DHT22;16985;50.814;8.530;2022-09-20T00:13:57;9.50;99.90
30174;DHT22;16985;50.814;8.530;2022-09-20T00:16:26;9.40;99.90
30174;DHT22;16985;50.814;8.530;2022-09-20T00:18:56;9.40;99.90
30174;DHT22;16985;50.814;8.530;2022-09-20T00:21:26;9.40;99.90
30174;DHT22;16985;50.814;8.530;2022-09-20T00:23:54;9.40;99.90
30174;DHT22;16985;50.814;8.530;2022-09-20T00:26:22;9.40;99.90
30174;DHT22;16985;50.814;8.530;2022-09-20T00:28:48;9.30;99.90
30174;DHT22;16985;50.814;8.530;2022-09-20T00:31:14;9.30;99.90
30174;DHT22;16985;50.814;8.530;2022-09-20T00:33:39;9.30;99.90
30174;DHT22;16985;50.814;8.530;2022-09-20T00:36:24;9.30;99.90
30174;DHT22;16985;50.814;8.530;2022-09-20T00:38:59;9.30;99.90
30174;DHT22;16985;50.814;8.530;2022-09-20T00:41:27;9.30;99.90
30174;DHT22;16985;50.814;8.530;2022-09-20T00:43:54;9.30;99.90
30174;DHT22;16985;50.814;8.530;2022-09-20T00:46:27;9.30;99.90
30174;DHT22;16985;50.814;8.530;2022-09-20T00:49:14;9.30;99.90
30174;DHT22;16985;50.814;8.530;2022-09-20T00:51:47;9.20;99.90
30174;DHT22;16985;50.814;8.530;2022-09-20T00:54:17;9.20;99.90
30174;DHT22;16985;50.814;8.530;2022-09-20T00:56:43;9.20;99.90
30174;DHT22;16985;50.814;8.530;2022-09-20T00:59:33;9.20;99.90
30174;DHT22;16985;50.814;8.530;2022-09-20T01:02:06;9.20;99.90
30174;DHT22;16985;50.814;8.530;2022-09-20T01:04:38;9.30;99.90
30174;DHT22;16985;50.814;8.530;2022-09-20T01:07:07;9.30;99.90
30174;DHT22;16985;50.814;8.530;2022-09-20T01:09:34;9.30;99.90
30174;DHT22;16985;50.814;8.530;2022-09-20T01:12:02;9.20;99.90
30174;DHT22;16985;50.814;8.530;2022-09-20T01:14:30;9.20;99.90
30174;DHT22;16985;50.814;8.530;2022-09-20T01:17:01;9.20;99.90
30174;DHT22;16985;50.814;8.530;2022-09-20T01:28:38;9.20;99.90
30174;DHT22;16985;50.814;8.530;2022-09-20T01:31:22;9.00;99.90
30174;DHT22;16985;50.814;8.530;2022-09-20T01:33:58;9.20;99.90
30174;DHT22;16985;50.814;8.530;2022-09-20T01:42:11;9.20;99.90
30174;DHT22;16985;50.814;8.530;2022-09-20T01:50:36;9.20;99.90
30174;DHT22;16985;50.814;8.530;2022-09-20T01:53:38;9.10;99.90
30174;DHT22;16985;50.814;8.530;2022-09-20T01:56:57;9.10;99.90
30174;DHT22;16985;50.814;8.530;2022-09-20T02:11:18;8.90;99.90
30174;DHT22;16985;50.814;8.530;2022-09-20T02:14:10;9.00;99.90
30174;DHT22;16985;50.814;8.530;2022-09-20T02:16:50;8.90;99.90
30174;DHT22;16985;50.814;8.530;2022-09-20T02:22:40;8.90;99.90
30174;DHT22;16985;50.814;8.530;2022-09-20T02:28:24;8.80;99.90
30174;DHT22;16985;50.814;8.530;2022-09-20T02:34:14;8.80;99.90
30174;DHT22;16985;50.814;8.530;2022-09-20T02:39:51;8.80;99.90
30174;DHT22;16985;50.814;8.530;2022-09-20T02:42:45;8.70;99.90
30174;DHT22;16985;50.814;8.530;2022-09-20T02:45:38;8.70;99.90
30174;DHT22;16985;50.814;8.530;2022-09-20T02:48:08;8.70;99.90
30174;DHT22;16985;50.814;8.530;2022-09-20T02:56:26;8.60;99.90
30174;DHT22;16985;50.814;8.530;2022-09-20T03:02:06;8.60;99.90
30174;DHT22;16985;50.814;8.530;2022-09-20T03:05:12;8.60;99.90
30174;DHT22;16985;50.814;8.530;2022-09-20T03:07:52;8.50;99.90
30174;DHT22;16985;50.814;8.530;2022-09-20T03:22:25;8.40;99.90
30174;DHT22;16985;50.814;8.530;2022-09-20T03:37:28;8.30;99.90
30174;DHT22;16985;50.814;8.530;2022-09-20T03:40:35;8.30;99.90
30174;DHT22;16985;50.814;8.530;2022-09-20T03:46:46;8.20;99.90
30174;DHT22;16985;50.814;8.530;2022-09-20T03:49:51;8.20;99.90
30174;DHT22;16985;50.814;8.530;2022-09-20T04:04:54;8.00;99.90
30174;DHT22;16985;50.814;8.530;2022-09-20T04:19:32;7.90;99.90
30174;DHT22;16985;50.814;8.530;2022-09-20T04:22:04;7.90;99.90
30174;DHT22;16985;50.814;8.530;2022-09-20T04:24:52;7.90;99.90
30174;DHT22;16985;50.814;8.530;2022-09-20T04:27:28;7.90;99.90
30174;DHT22;16985;50.814;8.530;2022-09-20T04:30:20;7.80;99.90
30174;DHT22;16985;50.814;8.530;2022-09-20T04:35:41;7.70;99.90
30174;DHT22;16985;50.814;8.530;2022-09-20T04:38:29;7.30;99.90
30174;DHT22;16985;50.814;8.530;2022-09-20T04:51:17;7.60;99.90
30174;DHT22;16985;50.814;8.530;2022-09-20T04:57:25;7.70;99.90
30174;DHT22;16985;50.814;8.530;2022-09-20T05:00:09;7.60;99.90
30174;DHT22;16985;50.814;8.530;2022-09-20T05:02:58;7.60;99.90
30174;DHT22;16985;50.814;8.530;2022-09-20T05:11:44;7.60;99.90
30174;DHT22;16985;50.814;8.530;2022-09-20T05:20:41;7.60;99.90
30174;DHT22;16985;50.814;8.530;2022-09-20T05:32:29;7.40;99.90
30174;DHT22;16985;50.814;8.530;2022-09-20T05:35:26;7.40;99.90
30174;DHT22;16985;50.814;8.530;2022-09-20T05:38:09;7.40;99.90
30174;DHT22;16985;50.814;8.530;2022-09-20T05:41:02;7.30;99.90
30174;DHT22;16985;50.814;8.530;2022-09-20T05:50:33;7.30;99.90
30174;DHT22;16985;50.814;8.530;2022-09-20T06:01:57;7.30;99.90
30174;DHT22;16985;50.814;8.530;2022-09-20T06:07:42;7.30;99.90
30174;DHT22;16985;50.814;8.530;2022-09-20T06:11:09;7.30;99.90
30174;DHT22;16985;50.814;8.530;2022-09-20T06:22:32;7.30;99.90
30174;DHT22;16985;50.814;8.530;2022-09-20T06:30:35;7.40;99.90
30174;DHT22;16985;50.814;8.530;2022-09-20T06:33:14;7.40;99.90
30174;DHT22;16985;50.814;8.530;2022-09-20T06:36:06;7.40;99.90
30174;DHT22;16985;50.814;8.530;2022-09-20T06:42:29;7.50;99.90
30174;DHT22;16985;50.814;8.530;2022-09-20T06:44:55;7.60;99.90
30174;DHT22;16985;50.814;8.530;2022-09-20T06:47:21;7.60;99.90
30174;DHT22;16985;50.814;8.530;2022-09-20T06:49:51;7.60;99.90
30174;DHT22;16985;50.814;8.530;2022-09-20T06:52:19;7.40;99.90
30174;DHT22;16985;50.814;8.530;2022-09-20T06:54:48;7.70;99.90
30174;DHT22;16985;50.814;8.530;2022-09-20T06:57:26;7.70;99.90
30174;DHT22;16985;50.814;8.530;2022-09-20T06:59:57;7.80;99.90
30174;DHT22;16985;50.814;8.530;2022-09-20T07:02:23;7.80;99.90
30174;DHT22;16985;50.814;8.530;2022-09-20T07:04:48;7.90;99.90
30174;DHT22;16985;50.814;8.530;2022-09-20T07:07:18;7.90;99.90
30174;DHT22;16985;50.814;8.530;2022-09-20T07:09:44;8.00;99.90
30174;DHT22;16985;50.814;8.530;2022-09-20T07:12:10;8.00;99.90
30174;DHT22;16985;50.814;8.530;2022-09-20T07:14:37;8.10;99.90
30174;DHT22;16985;50.814;8.530;2022-09-20T07:17:03;8.10;99.90
30174;DHT22;16985;50.814;8.530;2022-09-20T07:19:31;8.20;99.90
30174;DHT22;16985;50.814;8.530;2022-09-20T07:21:56;8.20;99.90
30174;DHT22;16985;50.814;8.530;2022-09-20T07:24:22;8.30;99.90
30174;DHT22;16985;50.814;8.530;2022-09-20T07:27:00;8.40;99.90
30174;DHT22;16985;50.814;8.530;2022-09-20T07:29:27;8.50;99.90
30174;DHT22;16985;50.814;8.530;2022-09-20T07:31:54;8.60;99.90
30174;DHT22;16985;50.814;8.530;2022-09-20T07:34:20;8.60;99.90
30174;DHT22;16985;50.814;8.530;2022-09-20T07:36:47;8.70;99.90
30174;DHT22;16985;50.814;8.530;2022-09-20T07:39:14;8.70;99.90
30174;DHT22;16985;50.814;8.530;2022-09-20T07:41:39;8.80;99.90
30174;DHT22;16985;50.814;8.530;2022-09-20T07:44:05;8.90;99.90
30174;DHT22;16985;50.814;8.530;2022-09-20T07:46:50;8.40;99.90
30174;DHT22;16985;50.814;8.530;2022-09-20T07:49:17;9.00;99.90
30174;DHT22;16985;50.814;8.530;2022-09-20T07:51:43;9.10;99.90
30174;DHT22;16985;50.814;8.530;2022-09-20T07:54:10;9.10;99.90
30174;DHT22;16985;50.814;8.530;2022-09-20T07:56:36;9.20;99.90
30174;DHT22;16985;50.814;8.530;2022-09-20T07:59:02;9.30;99.90
30174;DHT22;16985;50.814;8.530;2022-09-20T08:01:28;9.40;99.90
30174;DHT22;16985;50.814;8.530;2022-09-20T08:03:54;9.40;99.90
30174;DHT22;16985;50.814;8.530;2022-09-20T08:06:21;9.50;99.90
30174;DHT22;16985;50.814;8.530;2022-09-20T08:08:47;9.60;99.90
30174;DHT22;16985;50.814;8.530;2022-09-20T08:11:16;9.70;99.90
30174;DHT22;16985;50.814;8.530;2022-09-20T08:13:46;9.80;99.90
30174;DHT22;16985;50.814;8.530;2022-09-20T08:16:14;9.90;99.90
30174;DHT22;16985;50.814;8.530;2022-09-20T08:18:45;9.90;99.90
30174;DHT22;16985;50.814;8.530;2022-09-20T08:21:12;10.00;99.90
30174;DHT22;16985;50.814;8.530;2022-09-20T08:23:39;10.10;99.90
30174;DHT22;16985;50.814;8.530;2022-09-20T08:26:08;10.20;99.90
30174;DHT22;16985;50.814;8.530;2022-09-20T08:28:40;10.30;99.90
30174;DHT22;16985;50.814;8.530;2022-09-20T08:31:14;10.40;99.90
30174;DHT22;16985;50.814;8.530;2022-09-20T08:33:44;10.50;99.90
30174;DHT22;16985;50.814;8.530;2022-09-20T08:36:13;10.60;99.90
30174;DHT22;16985;50.814;8.530;2022-09-20T08:38:40;10.60;99.90
30174;DHT22;16985;50.814;8.530;2022-09-20T08:41:31;10.70;99.90
30174;DHT22;16985;50.814;8.530;2022-09-20T08:44:10;10.70;99.90
30174;DHT22;16985;50.814;8.530;2022-09-20T08:46:46;10.80;99.90
30174;DHT22;16985;50.814;8.530;2022-09-20T08:49:27;10.90;99.90
30174;DHT22;16985;50.814;8.530;2022-09-20T08:51:54;10.90;99.90
30174;DHT22;16985;50.814;8.530;2022-09-20T08:54:23;11.00;99.90
30174;DHT22;16985;50.814;8.530;2022-09-20T08:56:50;11.00;99.90
30174;DHT22;16985;50.814;8.530;2022-09-20T08:59:19;11.10;99.90
30174;DHT22;16985;50.814;8.530;2022-09-20T09:01:47;11.10;99.90
30174;DHT22;16985;50.814;8.530;2022-09-20T09:04:15;11.20;99.90
30174;DHT22;16985;50.814;8.530;2022-09-20T09:06:46;11.30;99.90
30174;DHT22;16985;50.814;8.530;2022-09-20T09:09:18;11.40;99.90
30174;DHT22;16985;50.814;8.530;2022-09-20T09:11:49;11.50;99.90
30174;DHT22;16985;50.814;8.530;2022-09-20T09:14:31;11.60;99.90
30174;DHT22;16985;50.814;8.530;2022-09-20T09:17:19;11.80;99.90
30174;DHT22;16985;50.814;8.530;2022-09-20T09:19:49;12.00;99.90
30174;DHT22;16985;50.814;8.530;2022-09-20T09:22:40;12.00;99.90
30174;DHT22;16985;50.814;8.530;2022-09-20T09:27:58;12.30;99.90
30174;DHT22;16985;50.814;8.530;2022-09-20T09:30:30;12.40;99.90
30174;DHT22;16985;50.814;8.530;2022-09-20T09:33:27;12.50;99.90
30174;DHT22;16985;50.814;8.530;2022-09-20T09:38:45;12.90;99.60
30174;DHT22;16985;50.814;8.530;2022-09-20T09:44:23;13.10;98.70
30174;DHT22;16985;50.814;8.530;2022-09-20T09:46:52;13.40;98.60
30174;DHT22;16985;50.814;8.530;2022-09-20T09:49:27;13.50;98.40
30174;DHT22;16985;50.814;8.530;2022-09-20T09:54:49;13.80;96.10
30174;DHT22;16985;50.814;8.530;2022-09-20T10:00:23;13.90;93.00
30174;DHT22;16985;50.814;8.530;2022-09-20T10:03:23;14.00;92.70
30174;DHT22;16985;50.814;8.530;2022-09-20T10:08:42;14.10;92.10
30174;DHT22;16985;50.814;8.530;2022-09-20T10:11:41;14.10;91.80
30174;DHT22;16985;50.814;8.530;2022-09-20T10:14:41;14.20;91.90
30174;DHT22;16985;50.814;8.530;2022-09-20T10:17:45;14.30;92.50
30174;DHT22;16985;50.814;8.530;2022-09-20T10:29:08;14.40;90.30
30174;DHT22;16985;50.814;8.530;2022-09-20T10:32:01;14.40;89.90
30174;DHT22;16985;50.814;8.530;2022-09-20T10:35:25;14.30;90.10
30174;DHT22;16985;50.814;8.530;2022-09-20T10:38:03;14.40;90.10
30174;DHT22;16985;50.814;8.530;2022-09-20T10:41:02;14.40;90.00
30174;DHT22;16985;50.814;8.530;2022-09-20T10:47:17;14.50;88.60
30174;DHT22;16985;50.814;8.530;2022-09-20T10:50:16;14.50;87.20
30174;DHT22;16985;50.814;8.530;2022-09-20T11:08:02;14.40;86.70
30174;DHT22;16985;50.814;8.530;2022-09-20T11:16:29;14.50;85.90
30174;DHT22;16985;50.814;8.530;2022-09-20T11:22:07;14.80;87.00
30174;DHT22;16985;50.814;8.530;2022-09-20T11:24:44;14.90;86.40
30174;DHT22;16985;50.814;8.530;2022-09-20T11:30:05;15.00;84.30
30174;DHT22;16985;50.814;8.530;2022-09-20T11:32:55;14.90;84.10
30174;DHT22;16985;50.814;8.530;2022-09-20T11:38:13;14.80;82.40
30174;DHT22;16985;50.814;8.530;2022-09-20T11:40:51;14.80;82.40
30174;DHT22;16985;50.814;8.530;2022-09-20T11:43:21;14.70;83.20
30174;DHT22;16985;50.814;8.530;2022-09-20T11:45:51;14.70;83.00
30174;DHT22;16985;50.814;8.530;2022-09-20T11:48:32;14.80;83.70
30174;DHT22;16985;50.814;8.530;2022-09-20T11:57:23;15.50;84.40
30174;DHT22;16985;50.814;8.530;2022-09-20T12:00:01;15.80;82.90
30174;DHT22;16985;50.814;8.530;2022-09-20T12:02:48;16.00;81.50
30174;DHT22;16985;50.814;8.530;2022-09-20T12:05:37;16.30;79.60
30174;DHT22;16985;50.814;8.530;2022-09-20T12:08:25;16.50;78.50
30174;DHT22;16985;50.814;8.530;2022-09-20T12:10:58;16.60;78.20
30174;DHT22;16985;50.814;8.530;2022-09-20T12:13:30;16.60;77.00
30174;DHT22;16985;50.814;8.530;2022-09-20T12:16:03;16.60;76.60
30174;DHT22;16985;50.814;8.530;2022-09-20T12:21:19;16.30;75.60
30174;DHT22;16985;50.814;8.530;2022-09-20T12:28:56;15.90;76.20
30174;DHT22;16985;50.814;8.530;2022-09-20T12:33:59;15.60;77.00
30174;DHT22;16985;50.814;8.530;2022-09-20T12:36:35;15.50;77.30
30174;DHT22;16985;50.814;8.530;2022-09-20T12:41:54;15.60;79.50
30174;DHT22;16985;50.814;8.530;2022-09-20T13:03:26;17.40;73.90
30174;DHT22;16985;50.814;8.530;2022-09-20T13:11:47;17.20;72.50
30174;DHT22;16985;50.814;8.530;2022-09-20T13:14:21;17.10;73.20
30174;DHT22;16985;50.814;8.530;2022-09-20T13:19:44;16.90;74.00
30174;DHT22;16985;50.814;8.530;2022-09-20T13:22:25;16.80;73.80
30174;DHT22;16985;50.814;8.530;2022-09-20T13:25:00;16.70;73.30
30174;DHT22;16985;50.814;8.530;2022-09-20T13:27:40;16.70;71.60
30174;DHT22;16985;50.814;8.530;2022-09-20T13:32:42;16.60;71.90
30174;DHT22;16985;50.814;8.530;2022-09-20T13:38:03;16.40;73.50
30174;DHT22;16985;50.814;8.530;2022-09-20T13:40:44;16.30;73.90
30174;DHT22;16985;50.814;8.530;2022-09-20T13:43:17;16.30;74.30
30174;DHT22;16985;50.814;8.530;2022-09-20T13:45:52;16.30;75.00
30174;DHT22;16985;50.814;8.530;2022-09-20T13:48:30;16.30;75.10
30174;DHT22;16985;50.814;8.530;2022-09-20T13:50:57;16.30;75.50
30174;DHT22;16985;50.814;8.530;2022-09-20T13:53:25;16.50;75.90
30174;DHT22;16985;50.814;8.530;2022-09-20T13:55:52;16.50;75.20
30174;DHT22;16985;50.814;8.530;2022-09-20T13:58:30;16.50;74.60
30174;DHT22;16985;50.814;8.530;2022-09-20T14:01:00;16.50;74.60
30174;DHT22;16985;50.814;8.530;2022-09-20T14:03:29;16.50;74.80
30174;DHT22;16985;50.814;8.530;2022-09-20T14:06:08;16.50;74.90
30174;DHT22;16985;50.814;8.530;2022-09-20T14:08:48;16.50;75.20
30174;DHT22;16985;50.814;8.530;2022-09-20T14:11:22;16.50;75.80
30174;DHT22;16985;50.814;8.530;2022-09-20T14:13:53;16.70;76.00
30174;DHT22;16985;50.814;8.530;2022-09-20T14:16:32;16.80;76.00
30174;DHT22;16985;50.814;8.530;2022-09-20T14:19:01;17.00;73.90
30174;DHT22;16985;50.814;8.530;2022-09-20T14:21:32;17.10;73.90
30174;DHT22;16985;50.814;8.530;2022-09-20T14:24:20;17.30;73.90
30174;DHT22;16985;50.814;8.530;2022-09-20T14:27:20;17.30;73.10
30174;DHT22;16985;50.814;8.530;2022-09-20T14:29:48;17.60;73.10
30174;DHT22;16985;50.814;8.530;2022-09-20T14:35:16;17.70;70.70
30174;DHT22;16985;50.814;8.530;2022-09-20T14:37:55;17.80;70.30
30174;DHT22;16985;50.814;8.530;2022-09-20T14:40:46;17.80;69.60
30174;DHT22;16985;50.814;8.530;2022-09-20T14:43:30;17.80;69.80
30174;DHT22;16985;50.814;8.530;2022-09-20T14:46:00;17.70;69.70
30174;DHT22;16985;50.814;8.530;2022-09-20T14:48:38;17.60;69.60
30174;DHT22;16985;50.814;8.530;2022-09-20T14:56:46;17.30;68.90
30174;DHT22;16985;50.814;8.530;2022-09-20T15:04:32;16.90;70.20
30174;DHT22;16985;50.814;8.530;2022-09-20T15:07:01;16.90;70.10
30174;DHT22;16985;50.814;8.530;2022-09-20T15:09:29;16.80;70.10
30174;DHT22;16985;50.814;8.530;2022-09-20T15:11:59;16.80;70.50
30174;DHT22;16985;50.814;8.530;2022-09-20T15:14:28;16.80;71.00
30174;DHT22;16985;50.814;8.530;2022-09-20T15:16:55;16.80;71.30
30174;DHT22;16985;50.814;8.530;2022-09-20T15:19:21;16.80;71.00
30174;DHT22;16985;50.814;8.530;2022-09-20T15:21:47;16.70;71.50
30174;DHT22;16985;50.814;8.530;2022-09-20T15:24:13;16.60;72.60
30174;DHT22;16985;50.814;8.530;2022-09-20T15:26:42;16.50;72.70
30174;DHT22;16985;50.814;8.530;2022-09-20T15:29:13;16.40;73.40
30174;DHT22;16985;50.814;8.530;2022-09-20T15:31:41;16.30;73.50
30174;DHT22;16985;50.814;8.530;2022-09-20T15:34:07;16.20;73.20
30174;DHT22;16985;50.814;8.530;2022-09-20T15:36:34;16.30;74.10
30174;DHT22;16985;50.814;8.530;2022-09-20T15:39:00;16.20;74.00
30174;DHT22;16985;50.814;8.530;2022-09-20T15:41:26;16.20;74.30
30174;DHT22;16985;50.814;8.530;2022-09-20T15:43:53;16.20;74.10
30174;DHT22;16985;50.814;8.530;2022-09-20T15:46:21;16.20;74.40
30174;DHT22;16985;50.814;8.530;2022-09-20T15:48:49;16.20;74.20
30174;DHT22;16985;50.814;8.530;2022-09-20T15:51:15;16.20;73.80
30174;DHT22;16985;50.814;8.530;2022-09-20T15:53:46;16.20;73.70
30174;DHT22;16985;50.814;8.530;2022-09-20T15:56:27;16.20;73.90
30174;DHT22;16985;50.814;8.530;2022-09-20T15:58:56;16.20;74.30
30174;DHT22;16985;50.814;8.530;2022-09-20T16:03:57;16.10;74.50
30174;DHT22;16985;50.814;8.530;2022-09-20T16:06:24;16.10;74.00
30174;DHT22;16985;50.814;8.530;2022-09-20T16:08:51;16.00;74.50
30174;DHT22;16985;50.814;8.530;2022-09-20T16:11:19;16.00;74.50
30174;DHT22;16985;50.814;8.530;2022-09-20T16:13:46;15.90;74.60
30174;DHT22;16985;50.814;8.530;2022-09-20T16:16:17;15.90;74.10
30174;DHT22;16985;50.814;8.530;2022-09-20T16:18:42;15.80;74.80
30174;DHT22;16985;50.814;8.530;2022-09-20T16:21:27;15.70;75.30
30174;DHT22;16985;50.814;8.530;2022-09-20T16:23:55;15.60;75.80
30174;DHT22;16985;50.814;8.530;2022-09-20T16:26:21;15.60;76.40
30174;DHT22;16985;50.814;8.530;2022-09-20T16:28:49;15.40;75.70
30174;DHT22;16985;50.814;8.530;2022-09-20T16:31:38;15.40;75.60
30174;DHT22;16985;50.814;8.530;2022-09-20T16:34:23;15.30;76.00
30174;DHT22;16985;50.814;8.530;2022-09-20T16:37:00;15.20;76.00
30174;DHT22;16985;50.814;8.530;2022-09-20T16:39:28;15.10;76.30
30174;DHT22;16985;50.814;8.530;2022-09-20T16:42:00;14.90;76.50
30174;DHT22;16985;50.814;8.530;2022-09-20T16:44:30;14.80;76.90
30174;DHT22;16985;50.814;8.530;2022-09-20T16:46:56;14.80;76.90
30174;DHT22;16985;50.814;8.530;2022-09-20T16:49:22;14.70;77.70
30174;DHT22;16985;50.814;8.530;2022-09-20T16:51:51;14.60;78.20
30174;DHT22;16985;50.814;8.530;2022-09-20T16:54:17;14.60;78.80
30174;DHT22;16985;50.814;8.530;2022-09-20T16:56:48;14.40;78.80
30174;DHT22;16985;50.814;8.530;2022-09-20T16:59:17;14.40;78.90
30174;DHT22;16985;50.814;8.530;2022-09-20T17:01:46;14.30;79.40
30174;DHT22;16985;50.814;8.530;2022-09-20T17:04:13;14.20;80.90
30174;DHT22;16985;50.814;8.530;2022-09-20T17:06:41;14.10;81.20
30174;DHT22;16985;50.814;8.530;2022-09-20T17:09:08;14.00;81.70
30174;DHT22;16985;50.814;8.530;2022-09-20T17:11:36;13.90;82.80
30174;DHT22;16985;50.814;8.530;2022-09-20T17:14:04;13.90;83.20
30174;DHT22;16985;50.814;8.530;2022-09-20T17:16:34;13.70;83.60
30174;DHT22;16985;50.814;8.530;2022-09-20T17:19:07;13.60;83.90
30174;DHT22;16985;50.814;8.530;2022-09-20T17:21:35;13.50;84.40
30174;DHT22;16985;50.814;8.530;2022-09-20T17:24:03;13.40;85.20
30174;DHT22;16985;50.814;8.530;2022-09-20T17:26:33;13.30;85.30
30174;DHT22;16985;50.814;8.530;2022-09-20T17:29:03;13.30;86.00
30174;DHT22;16985;50.814;8.530;2022-09-20T17:31:33;13.20;86.10
30174;DHT22;16985;50.814;8.530;2022-09-20T17:34:01;13.10;86.60
30174;DHT22;16985;50.814;8.530;2022-09-20T17:36:36;13.00;86.90
30174;DHT22;16985;50.814;8.530;2022-09-20T17:39:05;12.90;87.20
30174;DHT22;16985;50.814;8.530;2022-09-20T17:41:32;12.70;87.50
30174;DHT22;16985;50.814;8.530;2022-09-20T17:44:02;12.70;87.80
30174;DHT22;16985;50.814;8.530;2022-09-20T17:46:38;12.60;88.30
30174;DHT22;16985;50.814;8.530;2022-09-20T17:49:08;12.50;88.80
30174;DHT22;16985;50.814;8.530;2022-09-20T17:51:43;12.40;89.40
30174;DHT22;16985;50.814;8.530;2022-09-20T17:54:11;12.30;89.80
30174;DHT22;16985;50.814;8.530;2022-09-20T17:56:39;12.30;90.10
30174;DHT22;16985;50.814;8.530;2022-09-20T17:59:09;12.20;90.20
30174;DHT22;16985;50.814;8.530;2022-09-20T18:01:36;12.20;90.40
30174;DHT22;16985;50.814;8.530;2022-09-20T18:04:03;12.20;90.40
30174;DHT22;16985;50.814;8.530;2022-09-20T18:09:06;12.10;90.60
30174;DHT22;16985;50.814;8.530;2022-09-20T18:11:38;12.10;90.60
30174;DHT22;16985;50.814;8.530;2022-09-20T18:14:07;12.00;90.70
30174;DHT22;16985;50.814;8.530;2022-09-20T18:16:35;12.00;90.90
30174;DHT22;16985;50.814;8.530;2022-09-20T18:19:02;12.00;90.90
30174;DHT22;16985;50.814;8.530;2022-09-20T18:21:30;12.00;91.10
30174;DHT22;16985;50.814;8.530;2022-09-20T18:23:57;12.00;91.30
30174;DHT22;16985;50.814;8.530;2022-09-20T18:26:26;11.90;91.20
30174;DHT22;16985;50.814;8.530;2022-09-20T18:28:58;11.90;91.30
30174;DHT22;16985;50.814;8.530;2022-09-20T18:31:47;11.90;91.50
30174;DHT22;16985;50.814;8.530;2022-09-20T18:34:15;11.80;91.60
30174;DHT22;16985;50.814;8.530;2022-09-20T18:36:50;11.80;91.80
30174;DHT22;16985;50.814;8.530;2022-09-20T18:39:26;11.80;91.90
30174;DHT22;16985;50.814;8.530;2022-09-20T18:41:59;11.70;92.00
30174;DHT22;16985;50.814;8.530;2022-09-20T18:44:26;11.60;92.10
30174;DHT22;16985;50.814;8.530;2022-09-20T18:46:52;11.60;92.30
30174;DHT22;16985;50.814;8.530;2022-09-20T18:49:19;11.60;92.40
30174;DHT22;16985;50.814;8.530;2022-09-20T18:51:46;11.50;92.50
30174;DHT22;16985;50.814;8.530;2022-09-20T18:54:13;11.50;92.60
30174;DHT22;16985;50.814;8.530;2022-09-20T18:56:41;11.50;92.80
30174;DHT22;16985;50.814;8.530;2022-09-20T18:59:15;11.50;92.90
30174;DHT22;16985;50.814;8.530;2022-09-20T19:13:45;11.20;94.00
30174;DHT22;16985;50.814;8.530;2022-09-20T19:16:19;11.20;94.20
30174;DHT22;16985;50.814;8.530;2022-09-20T19:27:40;11.20;94.80
30174;DHT22;16985;50.814;8.530;2022-09-20T19:30:10;11.10;94.80
30174;DHT22;16985;50.814;8.530;2022-09-20T19:32:38;11.10;94.90
30174;DHT22;16985;50.814;8.530;2022-09-20T19:35:04;11.10;95.00
30174;DHT22;16985;50.814;8.530;2022-09-20T19:40:33;11.10;95.40
30174;DHT22;16985;50.814;8.530;2022-09-20T19:49:15;11.00;95.70
30174;DHT22;16985;50.814;8.530;2022-09-20T19:51:44;10.90;95.50
30174;DHT22;16985;50.814;8.530;2022-09-20T19:54:12;10.80;95.60
30174;DHT22;16985;50.814;8.530;2022-09-20T19:56:56;10.80;95.70
30174;DHT22;16985;50.814;8.530;2022-09-20T19:59:25;10.70;95.90
30174;DHT22;16985;50.814;8.530;2022-09-20T20:01:52;10.70;96.10
30174;DHT22;16985;50.814;8.530;2022-09-20T20:04:19;10.60;96.60
30174;DHT22;16985;50.814;8.530;2022-09-20T20:10:08;10.50;97.10
30174;DHT22;16985;50.814;8.530;2022-09-20T20:15:46;10.40;96.90
30174;DHT22;16985;50.814;8.530;2022-09-20T20:21:25;10.30;96.90
30174;DHT22;16985;50.814;8.530;2022-09-20T20:23:59;10.30;97.00
30174;DHT22;16985;50.814;8.530;2022-09-20T20:26:39;10.20;97.30
30174;DHT22;16985;50.814;8.530;2022-09-20T20:29:05;10.20;97.50
30174;DHT22;16985;50.814;8.530;2022-09-20T20:31:31;10.10;97.60
30174;DHT22;16985;50.814;8.530;2022-09-20T20:33:57;10.10;97.50
30174;DHT22;16985;50.814;8.530;2022-09-20T20:36:23;10.00;97.60
30174;DHT22;16985;50.814;8.530;2022-09-20T20:38:48;9.90;97.80
30174;DHT22;16985;50.814;8.530;2022-09-20T20:41:18;9.90;97.80
30174;DHT22;16985;50.814;8.530;2022-09-20T20:43:46;9.90;97.90
30174;DHT22;16985;50.814;8.530;2022-09-20T20:46:14;9.80;97.80
30174;DHT22;16985;50.814;8.530;2022-09-20T20:48:41;9.80;98.10
30174;DHT22;16985;50.814;8.530;2022-09-20T20:51:10;9.80;98.40
30174;DHT22;16985;50.814;8.530;2022-09-20T20:53:39;9.70;98.40
30174;DHT22;16985;50.814;8.530;2022-09-20T20:56:12;9.70;98.50
30174;DHT22;16985;50.814;8.530;2022-09-20T20:58:42;9.60;98.40
30174;DHT22;16985;50.814;8.530;2022-09-20T21:01:16;9.60;98.40
30174;DHT22;16985;50.814;8.530;2022-09-20T21:03:54;9.50;98.30
30174;DHT22;16985;50.814;8.530;2022-09-20T21:06:22;9.50;98.50
30174;DHT22;16985;50.814;8.530;2022-09-20T21:08:49;9.40;99.00
30174;DHT22;16985;50.814;8.530;2022-09-20T21:11:24;9.40;98.90
30174;DHT22;16985;50.814;8.530;2022-09-20T21:13:53;9.40;99.30
30174;DHT22;16985;50.814;8.530;2022-09-20T21:16:23;9.30;99.40
30174;DHT22;16985;50.814;8.530;2022-09-20T21:18:51;9.30;99.30
30174;DHT22;16985;50.814;8.530;2022-09-20T21:23:48;9.20;99.50
30174;DHT22;16985;50.814;8.530;2022-09-20T21:26:15;9.20;99.70
30174;DHT22;16985;50.814;8.530;2022-09-20T21:28:44;9.10;99.90
30174;DHT22;16985;50.814;8.530;2022-09-20T21:31:15;9.10;99.90
30174;DHT22;16985;50.814;8.530;2022-09-20T21:33:42;9.10;99.90
30174;DHT22;16985;50.814;8.530;2022-09-20T21:36:12;9.10;99.90
30174;DHT22;16985;50.814;8.530;2022-09-20T21:38:40;9.00;99.90
30174;DHT22;16985;50.814;8.530;2022-09-20T21:41:11;9.00;99.90
30174;DHT22;16985;50.814;8.530;2022-09-20T21:43:43;9.00;99.90
30174;DHT22;16985;50.814;8.530;2022-09-20T21:46:12;8.90;99.90
30174;DHT22;16985;50.814;8.530;2022-09-20T21:48:39;8.90;99.90
30174;DHT22;16985;50.814;8.530;2022-09-20T21:51:06;8.80;99.90
30174;DHT22;16985;50.814;8.530;2022-09-20T21:53:34;8.80;99.90
30174;DHT22;16985;50.814;8.530;2022-09-20T21:56:03;8.70;99.90
30174;DHT22;16985;50.814;8.530;2022-09-20T21:58:31;8.70;99.90
30174;DHT22;16985;50.814;8.530;2022-09-20T22:01:10;8.70;99.90
30174;DHT22;16985;50.814;8.530;2022-09-20T22:03:46;8.60;99.90
30174;DHT22;16985;50.814;8.530;2022-09-20T22:06:17;8.60;99.90
30174;DHT22;16985;50.814;8.530;2022-09-20T22:08:53;8.60;99.90
30174;DHT22;16985;50.814;8.530;2022-09-20T22:11:28;8.60;99.90